Time;durP1;ratioP1;P1;durP2;ratioP2;P2;SDS_P1;SDS_P2;PMS_P1;PMS_P2;Temp;Humidity;BMP_temperature;BMP_pressure;BME280_temperature;BME280_humidity;BME280_pressure;Samples;Min_cycle;Max_cycle;Signal;HPM_P1;HPM_P2
2022/04/10 00:01:58;;;;;;;2.35;1.83;;;;;;;1.18;96.04;96052.63;6366487;22;20006;-61
2022/04/10 00:04:24;;;;;;;2.92;2.63;;;;;;;1.11;95.85;96056.47;6366673;22;20667;-61
2022/04/10 00:06:49;;;;;;;2.60;2.17;;;;;;;1.07;96.04;96063.53;6366528;22;20009;-61
2022/04/10 00:09:15;;;;;;;4.25;2.00;;;;;;;1.02;96.50;96060.34;6366805;22;20028;-61
2022/04/10 00:11:41;;;;;;;2.60;2.42;;;;;;;0.95;96.78;96061.53;6366628;22;20081;-62
2022/04/10 00:14:06;;;;;;;2.47;2.28;;;;;;;0.92;96.80;96051.31;6366650;22;20005;-62
2022/04/10 00:16:32;;;;;;;2.20;2.10;;;;;;;0.87;97.23;96064.47;6366259;22;19998;-61
2022/04/10 00:19:04;;;;;;;2.30;2.10;;;;;;;0.82;96.72;96061.28;6366526;22;20094;-61
2022/04/10 00:21:29;;;;;;;2.60;2.10;;;;;;;0.78;96.66;96068.38;6366570;22;19998;-61
2022/04/10 00:23:54;;;;;;;2.50;2.30;;;;;;;0.76;97.06;96061.56;6366614;22;20032;-61
2022/04/10 00:26:20;;;;;;;2.30;2.10;;;;;;;0.72;96.79;96063.47;6366232;22;20010;-61
2022/04/10 00:28:45;;;;;;;2.13;2.00;;;;;;;0.70;96.59;96055.78;6366401;22;20010;-61
2022/04/10 00:31:10;;;;;;;1.80;1.70;;;;;;;0.67;97.41;96057.66;6366491;22;20024;-61
2022/04/10 00:33:36;;;;;;;2.38;2.28;;;;;;;0.63;97.14;96044.00;6366428;22;20359;-61
2022/04/10 00:36:02;;;;;;;2.20;2.10;;;;;;;0.58;97.95;96033.00;6366462;22;20013;-61
2022/04/10 00:38:27;;;;;;;2.90;2.25;;;;;;;0.53;98.37;96042.75;6366313;22;20002;-61
2022/04/10 00:40:53;;;;;;;1.98;1.88;;;;;;;0.52;98.85;96035.91;6366458;22;20002;-61
2022/04/10 00:43:18;;;;;;;2.42;2.22;;;;;;;0.50;98.39;96035.97;6366518;22;19999;-61
2022/04/10 00:45:43;;;;;;;2.25;2.15;;;;;;;0.55;98.04;96033.16;6338665;22;20419;-61
2022/04/10 00:48:09;;;;;;;2.08;1.98;;;;;;;0.54;98.29;96027.13;6366235;22;20030;-60
2022/04/10 00:50:35;;;;;;;2.90;2.55;;;;;;;0.51;98.21;96027.28;6317090;22;1135545;-60
2022/04/10 00:53:00;;;;;;;2.13;2.03;;;;;;;0.49;98.67;96023.09;6367235;22;20405;-61
2022/04/10 00:55:26;;;;;;;3.92;2.53;;;;;;;0.46;98.65;96018.06;6367525;22;20013;-61
2022/04/10 00:57:52;;;;;;;2.38;2.17;;;;;;;0.43;98.60;96011.25;6367178;22;19998;-61
2022/04/10 01:00:17;;;;;;;2.00;1.90;;;;;;;0.41;98.71;96007.91;6367217;22;20075;-61
2022/04/10 01:02:43;;;;;;;3.20;3.00;;;;;;;0.37;98.54;96009.78;6367580;22;20077;-61
2022/04/10 01:05:08;;;;;;;4.32;3.25;;;;;;;0.29;100.00;96011.91;6367430;22;20385;-61
2022/04/10 01:07:34;;;;;;;3.45;3.15;;;;;;;0.28;99.41;96016.22;6367278;22;20334;-61
2022/04/10 01:10:00;;;;;;;4.00;3.42;;;;;;;0.28;99.46;96018.00;6367186;22;20051;-61
2022/04/10 01:12:26;;;;;;;6.40;3.45;;;;;;;0.28;99.33;96018.00;6367432;22;20014;-61
2022/04/10 01:14:51;;;;;;;5.28;3.30;;;;;;;0.24;99.80;96004.34;6366473;22;20010;-61
2022/04/10 01:17:17;;;;;;;6.57;4.18;;;;;;;0.19;99.46;96006.31;6367490;22;20010;-61
2022/04/10 01:19:43;;;;;;;5.20;3.55;;;;;;;0.16;99.16;96001.28;6367510;22;20333;-61
2022/04/10 01:22:10;;;;;;;6.32;3.90;;;;;;;0.16;100.00;96009.03;6367466;22;19999;-61
2022/04/10 01:24:37;;;;;;;4.95;3.35;;;;;;;0.11;100.00;96010.97;6367120;22;19994;-61
2022/04/10 01:27:02;;;;;;;6.35;4.30;;;;;;;0.09;99.78;96011.06;6367351;22;20388;-61
2022/04/10 01:29:28;;;;;;;6.88;4.00;;;;;;;0.12;98.93;96005.75;6367349;22;19998;-61
2022/04/10 01:31:55;;;;;;;5.15;3.65;;;;;;;0.09;99.09;95999.84;6367090;22;20006;-61
2022/04/10 01:34:21;;;;;;;7.47;3.80;;;;;;;0.07;98.94;96010.31;6367416;22;19998;-61
2022/04/10 01:36:46;;;;;;;6.03;4.30;;;;;;;-0.01;99.13;96000.28;6367458;22;20065;-61
2022/04/10 01:39:15;;;;;;;3.85;3.55;;;;;;;-0.11;99.76;96017.16;6367262;22;20006;-61
2022/04/10 01:41:41;;;;;;;4.75;3.95;;;;;;;-0.09;98.93;96014.47;6367155;22;20010;-61
2022/04/10 01:44:08;;;;;;;6.53;3.75;;;;;;;-0.12;99.01;96012.84;6367194;22;20030;-61
2022/04/10 01:46:34;;;;;;;3.78;3.40;;;;;;;-0.16;99.46;96013.91;6367203;22;20006;-61
2022/04/10 01:49:00;;;;;;;3.85;3.00;;;;;;;-0.17;99.03;96015.66;6367274;22;20393;-61
2022/04/10 01:51:26;;;;;;;4.50;2.67;;;;;;;-0.17;99.48;96020.00;6367286;22;20007;-62
2022/04/10 01:53:53;;;;;;;3.85;3.20;;;;;;;-0.26;100.00;96015.25;6367149;22;20093;-60
2022/04/10 01:56:19;;;;;;;3.15;2.67;;;;;;;-0.33;100.00;96001.72;6366822;22;20531;-61
2022/04/10 01:58:46;;;;;;;2.92;2.67;;;;;;;-0.31;100.00;96003.34;6366769;22;20030;-61
2022/04/10 02:01:15;;;;;;;3.30;3.08;;;;;;;-0.34;100.00;96011.22;6367097;22;20006;-61
2022/04/10 02:03:42;;;;;;;3.53;3.00;;;;;;;-0.40;100.00;96008.91;6313962;22;20476;-61
2022/04/10 02:06:10;;;;;;;3.30;2.95;;;;;;;-0.40;100.00;96008.09;6368213;22;20006;-60
2022/04/10 02:08:35;;;;;;;3.22;2.88;;;;;;;-0.40;100.00;96001.16;6369038;22;20002;-61
2022/04/10 02:11:08;;;;;;;3.17;2.72;;;;;;;-0.42;100.00;96009.91;6369340;22;20430;-61
2022/04/10 02:13:33;;;;;;;3.33;3.03;;;;;;;-0.43;100.00;96003.88;6369339;22;20334;-61
2022/04/10 02:15:59;;;;;;;3.10;2.90;;;;;;;-0.43;100.00;96009.03;6369095;22;20006;-60
2022/04/10 02:18:24;;;;;;;2.53;2.42;;;;;;;-0.42;100.00;96005.56;6369380;22;20022;-61
2022/04/10 02:20:49;;;;;;;3.10;2.80;;;;;;;-0.36;99.70;96002.69;6369167;22;20470;-61
2022/04/10 02:23:15;;;;;;;2.92;2.72;;;;;;;-0.33;98.77;96010.34;6368872;22;20014;-61
2022/04/10 02:25:40;;;;;;;2.53;2.33;;;;;;;-0.38;100.00;96009.69;6369009;22;20025;-61
2022/04/10 02:28:05;;;;;;;3.75;3.33;;;;;;;-0.45;100.00;96011.69;6369089;22;20005;-61
2022/04/10 02:30:31;;;;;;;4.35;3.83;;;;;;;-0.49;100.00;96006.72;6368869;22;20030;-62
2022/04/10 02:32:56;;;;;;;4.38;3.85;;;;;;;-0.53;100.00;96005.19;6368957;22;20030;-61
2022/04/10 02:35:21;;;;;;;4.88;4.38;;;;;;;-0.58;100.00;96005.38;6368887;22;20061;-61
2022/04/10 02:37:47;;;;;;;6.28;4.00;;;;;;;-0.64;100.00;96003.88;6368766;22;20002;-61
2022/04/10 02:40:18;;;;;;;3.30;3.10;;;;;;;-0.62;100.00;96003.84;6368972;22;20077;-61
2022/04/10 02:42:44;;;;;;;4.97;3.22;;;;;;;-0.62;100.00;96002.06;6368918;22;20026;-61
2022/04/10 02:45:09;;;;;;;3.10;2.85;;;;;;;-0.62;100.00;95998.66;6368743;22;20388;-61
2022/04/10 02:47:35;;;;;;;2.60;2.40;;;;;;;-0.63;100.00;96007.31;6368904;22;20495;-61
2022/04/10 02:50:00;;;;;;;2.78;2.58;;;;;;;-0.66;100.00;95994.53;6368666;22;20025;-61
2022/04/10 02:52:26;;;;;;;4.22;2.50;;;;;;;-0.72;100.00;96003.38;6368733;22;20002;-61
2022/04/10 02:54:52;;;;;;;2.60;2.40;;;;;;;-0.79;100.00;95995.03;6368740;22;20006;-61
2022/04/10 02:57:17;;;;;;;2.90;2.50;;;;;;;-0.84;100.00;95993.53;6368778;22;20006;-61
2022/04/10 02:59:43;;;;;;;2.80;2.55;;;;;;;-0.90;100.00;96004.97;6368477;22;20009;-61
2022/04/10 03:02:08;;;;;;;2.65;2.40;;;;;;;-0.96;100.00;96006.09;6368956;22;20320;-61
2022/04/10 03:04:33;;;;;;;4.22;2.55;;;;;;;-0.94;100.00;95999.13;6368299;22;20053;-61
2022/04/10 03:06:59;;;;;;;2.28;2.10;;;;;;;-0.93;100.00;96000.78;6368549;22;20074;-61
2022/04/10 03:09:24;;;;;;;2.92;2.45;;;;;;;-0.97;100.00;95994.06;6368576;22;20438;-61
2022/04/10 03:11:49;;;;;;;3.50;2.47;;;;;;;-0.95;100.00;95989.69;6368649;22;19998;-61
2022/04/10 03:14:15;;;;;;;1.83;1.80;;;;;;;-0.96;100.00;95995.75;6368333;22;20098;-61
2022/04/10 03:16:42;;;;;;;2.42;2.33;;;;;;;-0.97;100.00;95988.91;6368398;22;20002;-61
2022/04/10 03:19:08;;;;;;;2.55;2.45;;;;;;;-1.01;100.00;95990.78;6368386;22;20007;-61
2022/04/10 03:21:34;;;;;;;2.78;2.58;;;;;;;-1.04;100.00;95987.47;6368804;22;20017;-61
2022/04/10 03:23:59;;;;;;;3.08;2.88;;;;;;;-1.07;100.00;95987.59;6368153;22;20059;-61
2022/04/10 03:26:25;;;;;;;3.00;2.60;;;;;;;-1.05;100.00;95990.94;6368425;22;20002;-61
2022/04/10 03:28:50;;;;;;;2.95;2.75;;;;;;;-1.08;100.00;95985.91;6368378;22;20006;-61
2022/04/10 03:31:16;;;;;;;6.13;2.65;;;;;;;-1.07;100.00;95983.28;6368373;22;20006;-61
2022/04/10 03:33:41;;;;;;;2.47;2.28;;;;;;;-1.04;99.64;95979.72;6368474;22;20178;-61
2022/04/10 03:36:06;;;;;;;2.33;2.13;;;;;;;-1.08;99.90;95984.19;6368410;22;20025;-60
2022/04/10 03:38:32;;;;;;;2.22;2.03;;;;;;;-1.09;99.95;95979.91;6368122;22;20006;-61
2022/04/10 03:40:57;;;;;;;2.25;2.05;;;;;;;-1.08;100.00;95978.16;6368339;22;20010;-61
2022/04/10 03:43:23;;;;;;;2.47;1.85;;;;;;;-1.12;100.00;95968.88;6368148;22;20061;-61
2022/04/10 03:45:48;;;;;;;2.08;1.90;;;;;;;-1.14;100.00;95970.66;6368065;22;20431;-61
2022/04/10 03:48:14;;;;;;;2.30;2.20;;;;;;;-1.17;100.00;95979.38;6368194;22;20337;-61
2022/04/10 03:50:39;;;;;;;2.75;2.55;;;;;;;-1.22;100.00;95968.41;6368040;22;20343;-61
2022/04/10 03:53:05;;;;;;;2.33;2.13;;;;;;;-1.21;100.00;95964.91;6367911;22;20426;-61
2022/04/10 03:55:35;;;;;;;2.42;2.25;;;;;;;-1.25;100.00;95964.19;6367946;22;20469;-61
2022/04/10 03:58:00;;;;;;;2.88;2.67;;;;;;;-1.29;100.00;95957.47;6367957;22;20078;-61
2022/04/10 04:00:25;;;;;;;2.60;2.40;;;;;;;-1.27;100.00;95955.66;6367970;22;20073;-61
2022/04/10 04:02:51;;;;;;;2.20;2.10;;;;;;;-1.25;100.00;95955.59;6367884;22;20506;-61
2022/04/10 04:05:16;;;;;;;2.63;2.42;;;;;;;-1.30;100.00;95948.91;6367918;22;20009;-61
2022/04/10 04:07:42;;;;;;;2.70;2.47;;;;;;;-1.29;100.00;95952.31;6339870;22;20002;-61
2022/04/10 04:10:08;;;;;;;2.78;2.58;;;;;;;-1.31;100.00;95948.94;6368041;22;20522;-61
2022/04/10 04:12:34;;;;;;;2.75;2.63;;;;;;;-1.32;100.00;95952.44;6368316;22;20002;-61
2022/04/10 04:15:00;;;;;;;1.88;1.77;;;;;;;-1.37;100.00;95952.59;6368135;22;20292;-61
2022/04/10 04:17:26;;;;;;;2.42;2.30;;;;;;;-1.41;100.00;95956.22;6368272;22;20330;-61
2022/04/10 04:19:51;;;;;;;2.55;2.35;;;;;;;-1.38;100.00;95965.59;6367579;22;20014;-61
2022/04/10 04:22:17;;;;;;;2.60;2.40;;;;;;;-1.41;100.00;95970.91;6367868;22;20025;-61
2022/04/10 04:24:43;;;;;;;2.67;2.58;;;;;;;-1.39;100.00;95976.84;6367837;22;20005;-61
2022/04/10 04:27:08;;;;;;;2.95;2.75;;;;;;;-1.35;99.97;95973.22;6340053;22;20422;-61
2022/04/10 04:29:34;;;;;;;2.90;2.70;;;;;;;-1.33;100.00;95979.16;6367541;22;20003;-61
2022/04/10 04:32:00;;;;;;;3.20;3.00;;;;;;;-1.42;100.00;95977.78;6367838;22;19998;-60
2022/04/10 04:34:25;;;;;;;2.92;2.72;;;;;;;-1.51;100.00;95984.16;6367661;22;20006;-61
2022/04/10 04:36:51;;;;;;;2.78;2.67;;;;;;;-1.50;100.00;95998.75;6367847;22;20006;-61
2022/04/10 04:39:16;;;;;;;3.00;2.80;;;;;;;-1.50;100.00;96000.50;6367864;22;20063;-61
2022/04/10 04:41:42;;;;;;;2.92;2.53;;;;;;;-1.52;100.00;96003.16;6367777;22;19999;-61
2022/04/10 04:44:07;;;;;;;3.00;2.80;;;;;;;-1.52;100.00;96007.47;6367374;22;20030;-61
2022/04/10 04:46:32;;;;;;;2.38;2.28;;;;;;;-1.57;100.00;96010.25;6367548;22;19998;-61
2022/04/10 04:48:58;;;;;;;2.90;2.70;;;;;;;-1.60;100.00;96015.53;6367489;22;20003;-61
2022/04/10 04:51:23;;;;;;;2.40;2.30;;;;;;;-1.64;100.00;96026.88;6367343;22;19999;-61
2022/04/10 04:53:49;;;;;;;3.03;2.83;;;;;;;-1.65;100.00;96025.19;6367556;22;20003;-61
2022/04/10 04:56:15;;;;;;;2.55;2.45;;;;;;;-1.68;100.00;96031.31;6367589;22;20063;-61
2022/04/10 04:58:41;;;;;;;2.30;2.20;;;;;;;-1.66;100.00;96031.22;6367540;22;20006;-61
2022/04/10 05:01:07;;;;;;;2.20;2.10;;;;;;;-1.64;100.00;96034.63;6367427;22;19998;-61
2022/04/10 05:03:33;;;;;;;2.70;2.50;;;;;;;-1.64;100.00;96040.63;6367519;22;20005;-61
2022/04/10 05:05:58;;;;;;;2.28;2.17;;;;;;;-1.63;100.00;96049.22;6367504;22;20002;-61
2022/04/10 05:08:23;;;;;;;2.35;2.20;;;;;;;-1.63;100.00;96046.63;6367245;22;20449;-61
2022/04/10 05:10:49;;;;;;;2.35;2.17;;;;;;;-1.59;100.00;96053.34;6367309;22;20002;-61
2022/04/10 05:13:14;;;;;;;2.30;2.20;;;;;;;-1.59;100.00;96053.34;6367535;22;19998;-61
2022/04/10 05:15:39;;;;;;;2.40;2.28;;;;;;;-1.54;99.78;96059.19;6367311;22;20067;-61
2022/04/10 05:18:05;;;;;;;2.53;2.20;;;;;;;-1.54;99.70;96060.94;6367108;22;20006;-61
2022/04/10 05:20:31;;;;;;;2.45;2.35;;;;;;;-1.59;100.00;96064.50;6367342;22;20434;-61
2022/04/10 05:22:56;;;;;;;2.20;2.10;;;;;;;-1.60;100.00;96067.16;6367457;22;20047;-61
2022/04/10 05:25:22;;;;;;;2.50;2.30;;;;;;;-1.54;99.61;96060.94;6367629;22;20030;-61
2022/04/10 05:27:47;;;;;;;2.90;2.50;;;;;;;-1.49;99.15;96066.75;6367352;22;20084;-61
2022/04/10 05:30:13;;;;;;;2.53;2.33;;;;;;;-1.49;99.27;96070.16;6367303;22;20461;-61
2022/04/10 05:32:42;;;;;;;3.20;3.00;;;;;;;-1.45;99.79;96076.91;6367212;22;20659;-61
2022/04/10 05:35:11;;;;;;;3.65;3.45;;;;;;;-1.43;99.50;96086.34;6367317;22;20003;-61
2022/04/10 05:37:37;;;;;;;2.40;2.22;;;;;;;-1.42;99.59;96085.44;6367259;22;20009;-61
2022/04/10 05:40:03;;;;;;;2.58;2.33;;;;;;;-1.43;100.00;96078.59;6367422;22;20405;-61
2022/04/10 05:42:28;;;;;;;2.55;2.45;;;;;;;-1.47;100.00;96081.28;6369174;22;20392;-61
2022/04/10 05:45:04;;;;;;;2.13;2.03;;;;;;;-1.47;100.00;96090.78;6369521;22;20006;-61
2022/04/10 05:47:29;;;;;;;;;;;;;;;-1.53;100.00;96094.44;6369789;22;20006;-61
2022/04/10 05:49:55;;;;;;;;;;;;;;;-1.42;99.94;96093.19;6341820;22;19910;-61
2022/04/10 05:52:20;;;;;;;6.27;5.67;;;;;;;-1.46;99.90;96101.03;6369529;22;19914;-61
2022/04/10 05:54:46;;;;;;;8.43;7.63;;;;;;;-1.45;100.00;96102.72;6369300;22;20082;-60
2022/04/10 05:57:11;;;;;;;9.95;9.00;;;;;;;-1.45;100.00;96107.06;6341381;22;20025;-61
2022/04/10 05:59:36;;;;;;;10.07;8.10;;;;;;;-1.39;100.00;96118.91;6369008;22;20002;-61
2022/04/10 06:02:02;;;;;;;8.55;7.65;;;;;;;-1.34;100.00;96119.56;6368878;22;19998;-60
2022/04/10 06:04:27;;;;;;;8.25;7.47;;;;;;;-1.30;99.58;96126.31;6369290;22;19998;-61
2022/04/10 06:06:53;;;;;;;9.10;8.30;;;;;;;-1.32;99.66;96133.28;6369206;22;20094;-60
2022/04/10 06:09:18;;;;;;;9.20;8.30;;;;;;;-1.40;100.00;96125.81;6369226;22;20003;-61
2022/04/10 06:11:44;;;;;;;9.25;7.68;;;;;;;-1.40;100.00;96124.97;6368964;22;20438;-61
2022/04/10 06:14:09;;;;;;;7.95;5.93;;;;;;;-1.37;100.00;96124.84;6368946;22;20025;-60
2022/04/10 06:16:34;;;;;;;8.27;6.93;;;;;;;-1.34;100.00;96129.91;6369202;22;20430;-61
2022/04/10 06:19:00;;;;;;;7.50;6.80;;;;;;;-1.35;100.00;96138.56;6369033;22;20009;-60
2022/04/10 06:21:25;;;;;;;7.50;6.70;;;;;;;-1.34;100.00;96135.06;6369070;22;20078;-61
2022/04/10 06:23:50;;;;;;;9.32;7.28;;;;;;;-1.33;100.00;96135.03;6368888;22;20491;-61
2022/04/10 06:26:16;;;;;;;8.32;7.53;;;;;;;-1.26;100.00;96134.78;6368852;22;19998;-61
2022/04/10 06:28:41;;;;;;;20.55;12.27;;;;;;;-1.22;100.00;96144.09;6368915;22;20499;-60
2022/04/10 06:31:07;;;;;;;25.23;15.63;;;;;;;-1.26;100.00;96140.78;6368939;22;20411;-61
2022/04/10 06:33:32;;;;;;;19.75;13.05;;;;;;;-1.24;100.00;96138.97;6369001;22;20330;-62
2022/04/10 06:35:57;;;;;;;19.63;13.35;;;;;;;-1.19;100.00;96146.56;6368744;22;20002;-61
2022/04/10 06:38:23;;;;;;;15.18;12.15;;;;;;;-1.15;100.00;96137.78;6368786;22;20010;-61
2022/04/10 06:40:51;;;;;;;16.92;13.10;;;;;;;-0.79;100.00;96136.41;6368731;22;20003;-61
2022/04/10 06:43:16;;;;;;;23.38;15.82;;;;;;;0.30;100.00;96137.06;6369024;22;20002;-61
2022/04/10 06:45:42;;;;;;;21.55;15.65;;;;;;;1.58;96.12;96130.25;6368433;22;20528;-61
2022/04/10 06:48:07;;;;;;;15.20;11.95;;;;;;;2.64;90.24;96130.91;6367994;22;20003;-61
2022/04/10 06:50:33;;;;;;;19.88;13.35;;;;;;;3.62;86.59;96124.72;6367960;22;20037;-61
2022/04/10 06:52:58;;;;;;;27.38;20.17;;;;;;;4.15;84.87;96127.72;6340347;22;20006;-61
2022/04/10 06:55:23;;;;;;;15.77;10.32;;;;;;;4.40;79.76;96129.66;6366574;22;20045;-61
2022/04/10 06:57:49;;;;;;;6.05;5.45;;;;;;;4.77;80.70;96128.34;6367860;22;20009;-61
2022/04/10 07:00:15;;;;;;;6.50;6.00;;;;;;;5.49;74.37;96128.16;6367707;22;20006;-61
2022/04/10 07:02:40;;;;;;;2.33;2.22;;;;;;;6.15;74.19;96130.00;6340744;22;20081;-61
2022/04/10 07:05:06;;;;;;;1.90;1.80;;;;;;;6.50;70.29;96137.19;6368462;22;20040;-61
2022/04/10 07:07:31;;;;;;;1.70;1.70;;;;;;;6.95;66.17;96136.72;6368337;22;20003;-61
2022/04/10 07:09:58;;;;;;;1.77;1.67;;;;;;;6.71;64.90;96127.03;6368212;22;20013;-61
2022/04/10 07:12:23;;;;;;;1.67;1.58;;;;;;;6.70;64.75;96141.06;6368400;22;20123;-61
2022/04/10 07:14:49;;;;;;;1.85;1.75;;;;;;;7.69;61.47;96153.31;6368214;22;20048;-61
2022/04/10 07:17:14;;;;;;;1.85;1.75;;;;;;;8.39;56.04;96133.22;6366672;22;20009;-61
2022/04/10 07:19:40;;;;;;;1.90;1.60;;;;;;;8.76;56.56;96140.09;6367676;22;20014;-61
2022/04/10 07:24:49;;;;;;;2.15;2.03;;;;;;;8.76;56.71;96137.47;6367022;22;20393;-61
2022/04/10 07:27:14;;;;;;;10.60;6.38;;;;;;;9.35;57.08;96129.38;6367828;22;20081;-61
2022/04/10 07:29:40;;;;;;;1.77;1.65;;;;;;;9.30;56.99;96133.22;6367775;22;20002;-61
2022/04/10 07:32:06;;;;;;;3.75;2.10;;;;;;;9.03;56.78;96131.81;6367619;22;20003;-62
2022/04/10 07:34:31;;;;;;;2.63;2.42;;;;;;;9.85;53.47;96131.50;6368151;22;20384;-61
2022/04/10 07:36:56;;;;;;;1.80;1.70;;;;;;;9.61;54.95;96119.38;6368127;22;20005;-61
2022/04/10 07:39:22;;;;;;;2.33;2.13;;;;;;;9.37;53.80;96123.03;6367149;22;20006;-62
2022/04/10 07:41:47;;;;;;;1.50;1.50;;;;;;;10.22;49.13;96125.78;6366890;22;20025;-63
2022/04/10 07:44:13;;;;;;;2.10;2.00;;;;;;;9.83;49.49;96112.34;6367107;22;20009;-65
2022/04/10 07:49:23;;;;;;;5.65;2.67;;;;;;;10.12;48.52;96095.94;6366290;22;20025;-59
2022/04/10 07:51:48;;;;;;;4.32;3.08;;;;;;;10.52;48.76;96097.00;6365532;22;20009;-60
2022/04/10 07:54:14;;;;;;;4.88;2.83;;;;;;;10.60;47.12;96100.66;6362851;22;20065;-60
2022/04/10 07:56:39;;;;;;;5.53;3.80;;;;;;;10.38;47.99;96101.63;6367568;22;20003;-59
2022/04/10 07:59:04;;;;;;;2.40;2.20;;;;;;;11.31;46.72;96106.84;6367866;22;20052;-56
2022/04/10 08:01:30;;;;;;;1.92;1.83;;;;;;;11.12;47.04;96112.88;6368166;22;20086;-59
2022/04/10 08:03:55;;;;;;;1.70;1.60;;;;;;;10.48;46.94;96114.84;6367944;22;20135;-60
2022/04/10 08:06:21;;;;;;;2.10;1.90;;;;;;;11.11;45.14;96107.75;6368212;22;20050;-60
2022/04/10 08:08:46;;;;;;;1.00;1.00;;;;;;;10.42;44.59;96102.22;6368163;22;20143;-59
2022/04/10 08:11:12;;;;;;;1.58;1.30;;;;;;;10.28;45.24;96098.97;6367884;22;20700;-60
2022/04/10 08:13:37;;;;;;;1.23;1.13;;;;;;;10.00;45.16;96103.88;6367172;22;20021;-59
2022/04/10 08:16:03;;;;;;;1.35;1.27;;;;;;;10.31;45.57;96095.22;6366704;22;20009;-58
2022/04/10 08:18:28;;;;;;;2.00;1.60;;;;;;;10.26;47.48;96089.50;6366264;22;20006;-59
2022/04/10 08:20:54;;;;;;;1.33;1.25;;;;;;;11.70;45.42;96098.13;6366945;22;20005;-59
2022/04/10 08:23:19;;;;;;;1.10;1.10;;;;;;;11.09;43.54;96099.16;6365905;22;20073;-59
2022/04/10 08:25:44;;;;;;;1.10;1.10;;;;;;;11.56;44.54;96094.09;6366492;22;19999;-59
2022/04/10 08:28:10;;;;;;;1.15;1.15;;;;;;;11.97;43.74;96083.38;6366122;22;20002;-58
2022/04/10 08:30:35;;;;;;;2.63;1.30;;;;;;;12.07;43.25;96082.56;6366727;22;20006;-59
2022/04/10 08:33:01;;;;;;;0.85;0.85;;;;;;;12.59;41.05;96084.75;6366876;22;20387;-59
2022/04/10 08:35:27;;;;;;;1.63;1.52;;;;;;;12.49;41.21;96090.13;6367659;22;20012;-59
2022/04/10 08:37:52;;;;;;;2.90;1.60;;;;;;;12.20;42.76;96098.09;6367674;22;20065;-59
2022/04/10 08:40:19;;;;;;;1.08;1.08;;;;;;;11.94;39.28;96098.66;6367076;22;20006;-60
2022/04/10 08:42:44;;;;;;;1.42;1.33;;;;;;;12.15;40.38;96104.63;6367524;22;20009;-59
2022/04/10 08:45:09;;;;;;;1.20;1.15;;;;;;;11.81;39.60;96097.13;6368070;22;20031;-59
2022/04/10 08:47:38;;;;;;;1.00;0.90;;;;;;;12.40;38.49;96098.88;6367748;22;20002;-59
2022/04/10 08:50:05;;;;;;;0.98;0.98;;;;;;;12.17;38.73;96102.69;6367322;22;20450;-59
2022/04/10 08:52:31;;;;;;;1.20;1.10;;;;;;;11.52;39.56;96102.41;6367539;22;20016;-58
2022/04/10 08:54:56;;;;;;;1.38;1.30;;;;;;;11.78;41.90;96096.56;6367650;22;20448;-59
2022/04/10 08:57:22;;;;;;;1.48;1.13;;;;;;;12.34;39.73;96096.81;6367568;22;20002;-59
2022/04/10 08:59:47;;;;;;;1.00;1.00;;;;;;;13.68;38.08;96096.44;6367326;22;20011;-59
2022/04/10 09:02:13;;;;;;;1.00;1.00;;;;;;;13.57;38.40;96092.19;6367539;22;20025;-58
2022/04/10 09:04:39;;;;;;;1.83;0.85;;;;;;;13.97;38.12;96095.34;6367404;22;20004;-59
2022/04/10 09:07:11;;;;;;;1.30;1.30;;;;;;;14.85;35.67;96098.09;6367480;22;20408;-58
2022/04/10 09:09:42;;;;;;;0.90;0.90;;;;;;;14.77;34.81;96100.69;6367828;22;19995;-58
2022/04/10 09:12:08;;;;;;;1.73;0.98;;;;;;;14.68;35.06;96089.16;6367035;22;19998;-58
2022/04/10 09:14:35;;;;;;;1.05;1.05;;;;;;;14.24;33.60;96096.19;6367083;22;20002;-59
2022/04/10 09:17:22;;;;;;;1.20;1.10;;;;;;;14.11;36.49;96099.25;6368292;22;20006;-59
2022/04/10 09:19:52;;;;;;;1.10;1.00;;;;;;;14.09;34.30;96098.56;6367588;22;20014;-59
2022/04/10 09:22:37;;;;;;;0.88;0.80;;;;;;;13.27;35.73;96093.34;6367085;22;20006;-59
2022/04/10 09:25:13;;;;;;;0.93;0.90;;;;;;;13.02;34.86;96098.34;6367496;22;20407;-59
2022/04/10 09:27:46;;;;;;;0.90;0.90;;;;;;;13.17;34.46;96091.59;6367339;22;20503;-58
2022/04/10 09:30:16;;;;;;;1.05;1.05;;;;;;;14.00;36.66;96087.09;6367461;22;20010;-59
2022/04/10 09:32:52;;;;;;;1.17;1.08;;;;;;;14.59;33.55;96075.06;6367311;22;20009;-59
2022/04/10 09:35:19;;;;;;;1.20;1.10;;;;;;;15.38;35.16;96074.03;6367202;22;20081;-59
2022/04/10 09:37:48;;;;;;;1.50;1.25;;;;;;;16.23;31.70;96080.09;6367455;22;20084;-59
2022/04/10 09:40:23;;;;;;;0.80;0.80;;;;;;;15.00;33.51;96071.78;6367330;22;20063;-59
2022/04/10 09:42:50;;;;;;;0.70;0.70;;;;;;;14.64;34.42;96077.22;6367380;22;20029;-59
2022/04/10 09:45:29;;;;;;;1.00;1.00;;;;;;;15.86;31.10;96071.63;6367261;22;19998;-58
2022/04/10 09:47:54;;;;;;;0.88;0.88;;;;;;;15.74;31.46;96074.59;6367131;22;20003;-59
2022/04/10 09:50:30;;;;;;;1.00;1.00;;;;;;;15.16;31.43;96068.34;6366790;22;20438;-59
2022/04/10 09:52:55;;;;;;;0.93;0.93;;;;;;;15.44;32.29;96068.94;6367364;22;20003;-59
2022/04/10 09:55:38;;;;;;;1.02;1.00;;;;;;;15.10;32.38;96063.72;6366968;22;20400;-59
2022/04/10 09:58:10;;;;;;;0.82;0.82;;;;;;;14.64;33.15;96059.53;6367269;22;19998;-59
2022/04/10 10:00:40;;;;;;;1.23;1.10;;;;;;;14.96;34.31;96059.84;6339127;22;20093;-59
2022/04/10 10:03:07;;;;;;;1.02;1.02;;;;;;;15.73;31.02;96056.19;6367267;22;20442;-59
2022/04/10 10:05:33;;;;;;;0.95;0.95;;;;;;;14.97;33.01;96058.88;6366927;22;19998;-59
2022/04/10 10:07:59;;;;;;;2.17;1.30;;;;;;;14.47;34.20;96050.66;6339240;22;20051;-59
2022/04/10 10:10:29;;;;;;;0.95;0.95;;;;;;;14.52;33.98;96052.81;6367469;22;20032;-59
2022/04/10 10:12:56;;;;;;;1.27;1.10;;;;;;;15.97;32.43;96052.72;6366413;22;20034;-59
2022/04/10 10:15:22;;;;;;;1.15;1.05;;;;;;;15.49;33.60;96049.03;6365326;22;20021;-60
2022/04/10 10:17:48;;;;;;;1.10;1.10;;;;;;;16.01;32.28;96042.59;6366451;22;20002;-56
2022/04/10 10:20:14;;;;;;;1.83;1.10;;;;;;;16.02;32.84;96039.75;6365752;22;20348;-59
2022/04/10 10:22:39;;;;;;;1.00;1.00;;;;;;;15.50;32.57;96037.41;6367019;22;19998;-57
2022/04/10 10:25:29;;;;;;;1.40;1.30;;;;;;;15.25;33.79;96024.97;6367354;22;20034;-57
2022/04/10 10:28:19;;;;;;;1.10;1.10;;;;;;;14.99;32.64;96023.22;6369002;22;20006;-57
2022/04/10 10:31:20;;;;;;;1.40;1.30;;;;;;;14.94;32.64;96019.44;6368197;22;20450;-57
2022/04/10 10:33:52;;;;;;;1.00;1.00;;;;;;;15.38;33.02;96018.34;6368808;22;20006;-57
2022/04/10 10:36:28;;;;;;;1.60;1.00;;;;;;;15.46;33.60;96005.91;6368528;22;20005;-58
2022/04/10 10:38:55;;;;;;;1.08;1.08;;;;;;;15.97;32.56;95998.81;6366671;22;20041;-57
2022/04/10 10:41:20;;;;;;;1.27;1.17;;;;;;;16.63;31.94;95995.13;6368385;22;20055;-58
2022/04/10 10:43:47;;;;;;;1.20;1.20;;;;;;;17.25;31.14;95991.69;6368702;22;20342;-57
2022/04/10 10:46:21;;;;;;;2.90;1.30;;;;;;;17.38;32.01;95985.78;6339844;22;20003;-57
2022/04/10 10:48:47;;;;;;;1.30;1.20;;;;;;;16.91;30.27;95990.19;6367843;22;20008;-57
2022/04/10 10:51:13;;;;;;;1.00;1.00;;;;;;;16.19;33.49;95986.63;6367825;22;20049;-58
2022/04/10 10:53:52;;;;;;;1.33;1.25;;;;;;;16.14;32.63;95981.84;6368846;22;20387;-58
2022/04/10 10:56:17;;;;;;;1.00;0.98;;;;;;;16.79;32.32;95972.94;6366545;22;20473;-57
2022/04/10 10:58:43;;;;;;;1.23;1.15;;;;;;;16.90;30.52;95978.69;6367721;22;20002;-58
2022/04/10 11:01:14;;;;;;;1.02;0.95;;;;;;;15.71;31.92;95967.94;6368143;22;20003;-59
2022/04/10 11:04:08;;;;;;;1.00;1.00;;;;;;;16.52;33.14;95975.06;6368155;22;20002;-57
2022/04/10 11:06:44;;;;;;;1.05;0.95;;;;;;;15.73;31.14;95971.25;6367896;22;20003;-58
2022/04/10 11:09:31;;;;;;;3.03;0.98;;;;;;;16.70;31.77;95973.00;6367994;22;20081;-57
2022/04/10 11:11:59;;;;;;;0.93;0.93;;;;;;;16.46;31.02;95973.91;6368048;22;20052;-58
2022/04/10 11:14:35;;;;;;;1.10;1.10;;;;;;;16.86;31.95;95966.75;6368394;22;20402;-57
2022/04/10 11:17:28;;;;;;;1.13;1.13;;;;;;;17.11;30.86;95958.66;6367141;22;20036;-57
2022/04/10 11:20:09;;;;;;;1.40;1.30;;;;;;;17.78;30.11;95958.13;6362780;22;20010;-58
2022/04/10 11:22:40;;;;;;;3.50;1.20;;;;;;;16.73;32.62;95956.69;6368379;22;20006;-59
2022/04/10 11:25:08;;;;;;;1.88;1.10;;;;;;;16.30;33.09;95961.53;6367914;22;20003;-60
2022/04/10 11:28:04;;;;;;;1.58;1.48;;;;;;;16.39;34.01;95957.00;6368289;22;19999;-55
2022/04/10 11:30:40;;;;;;;1.30;1.30;;;;;;;16.57;33.39;95940.81;6368214;22;20017;-58
2022/04/10 11:33:11;;;;;;;3.28;1.48;;;;;;;16.53;34.33;95939.50;6368932;22;20346;-58
2022/04/10 11:35:38;;;;;;;1.80;1.70;;;;;;;17.44;32.32;95937.16;6368296;22;20006;-60
2022/04/10 11:38:07;;;;;;;1.92;1.45;;;;;;;16.88;31.46;95932.84;6367435;22;20010;-56